Kangerlussuaq

KL  EN  DA
ASIAQ
Weather Now GREENLAND SURVEY
Updated [WGT/WGST] Temperature [°C] Wind [m/s] Air pressure [hPa] Relative humidity [%] Precipitation [mm]
Present Wind chill Speed Max
27.09 01:00-11,0-16,62,9 ⇙4,0101674n/a
27.09 00:00-11,1-16,83,0 ⇙4,0101675n/a
26.09 23:00-10,4-15,92,9 ⇙3,9101675n/a
26.09 22:00-9,9-17,45,1 ⇐6,1101574n/a
26.09 21:00-9,5-15,93,9 ⇙5,4101574n/a
26.09 20:00-8,2-13,83,4 ⇙4,2101569n/a
26.09 19:00-7,3-13,23,9 ⇐4,3101464n/a
26.09 18:00-4,7-9,23,1 ⇐4,0101453n/a
26.09 17:00-4,3-9,03,3 ⇐4,9101353n/a
26.09 16:00-4,5-9,33,4 ⇐4,6101350n/a
26.09 15:00-4,6-9,33,3 ⇐5,1101350n/a
26.09 14:00-5,5-11,24,2 ⇐5,2101353n/a
26.09 13:00-6,1-11,43,6 ⇐4,5101454n/a
26.09 12:00-7,5-13,74,2 ⇐5,0101456n/a
26.09 11:00-8,8-16,15,2 ⇐6,3101459n/a
26.09 10:00-10,3-17,95,2 ⇐6,0101466n/a
26.09 09:00-10,8-18,45,0 ⇐6,0101465n/a
26.09 08:00-11,4-18,03,7 ⇙5,0101469n/a
26.09 07:00-12,0-19,34,3 ⇙6,1101471n/a
26.09 06:00-11,1-18,54,7 ⇐5,7101470n/a
26.09 05:00-10,9-18,04,4 ⇐5,6101471n/a
26.09 04:00-10,1-17,65,1 ⇐6,1101470n/a
26.09 03:00-9,4-16,75,1 ⇐5,9101466n/a
26.09 02:00-9,1-16,75,5 ⇐6,7101468n/a
26.09 01:00-8,1-15,04,9 ⇐6,2101467n/a
Position: (67.013333333333,-50.72712222)

[Back]